Time;durP1;ratioP1;P1;durP2;ratioP2;P2;SDS_P1;SDS_P2;PMS_P1;PMS_P2;Temp;Humidity;BMP_temperature;BMP_pressure;BME280_temperature;BME280_humidity;BME280_pressure;Samples;Min_cycle;Max_cycle;Signal;HPM_P1;HPM_P2
2023/07/02 00:01:11;;;;;;;13.23;4.82;;;15.40;99.90;;;;;;5047354;28;20021;-73
2023/07/02 00:03:38;;;;;;;10.77;4.97;;;15.40;99.90;;;;;;5047520;28;20048;-71
2023/07/02 00:06:04;;;;;;;12.30;4.90;;;15.40;99.90;;;;;;5065214;28;20017;-76
2023/07/02 00:08:30;;;;;;;16.85;5.32;;;15.40;99.90;;;;;;5047761;28;20486;-73
2023/07/02 00:10:55;;;;;;;12.68;5.28;;;15.30;99.90;;;;;;5065350;28;20055;-72
2023/07/02 00:13:21;;;;;;;9.50;4.75;;;15.30;99.90;;;;;;5065494;28;20035;-72
2023/07/02 00:15:46;;;;;;;13.00;5.15;;;15.40;99.90;;;;;;5065175;28;20017;-71
2023/07/02 00:18:16;;;;;;;8.43;5.28;;;15.30;99.90;;;;;;5065242;28;20081;-74
2023/07/02 00:20:41;;;;;;;9.50;5.45;;;15.30;99.90;;;;;;5065507;28;20025;-71
2023/07/02 00:23:09;;;;;;;15.85;5.88;;;15.30;99.90;;;;;;5065059;28;20060;-72
2023/07/02 00:25:37;;;;;;;12.73;5.40;;;15.30;99.90;;;;;;5047008;28;20027;-73
2023/07/02 00:28:03;;;;;;;12.68;5.30;;;15.40;99.90;;;;;;5064973;28;20128;-74
2023/07/02 00:30:29;;;;;;;11.85;5.60;;;15.30;99.90;;;;;;5064900;28;20033;-73
2023/07/02 00:32:55;;;;;;;13.18;6.25;;;15.20;99.90;;;;;;5064716;28;20032;-73
2023/07/02 00:35:21;;;;;;;11.52;5.65;;;15.20;99.90;;;;;;5046432;28;20036;-72
2023/07/02 00:37:47;;;;;;;11.35;5.50;;;15.30;99.90;;;;;;5064928;28;20029;-73
2023/07/02 00:40:13;;;;;;;13.00;5.72;;;15.20;99.90;;;;;;5050803;28;20050;-71
2023/07/02 00:42:38;;;;;;;12.00;5.60;;;15.20;99.90;;;;;;5045222;28;20143;-72
2023/07/02 00:45:04;;;;;;;12.73;5.78;;;15.30;99.90;;;;;;5044346;28;20017;-71
2023/07/02 00:47:34;;;;;;;11.60;5.38;;;15.20;99.90;;;;;;5044181;28;20052;-72
2023/07/02 00:50:01;;;;;;;11.52;5.50;;;15.20;99.90;;;;;;5044030;28;20120;-72
2023/07/02 00:52:27;;;;;;;11.02;5.72;;;15.20;99.90;;;;;;5043923;28;20021;-73
2023/07/02 00:54:52;;;;;;;11.90;5.32;;;15.20;99.90;;;;;;5030064;28;20071;-72
2023/07/02 00:57:19;;;;;;;8.55;5.32;;;15.30;99.90;;;;;;5044412;28;20025;-74
2023/07/02 00:59:44;;;;;;;12.75;5.60;;;15.30;99.90;;;;;;5044156;28;20073;-73
2023/07/02 01:02:10;;;;;;;14.20;5.72;;;15.30;99.90;;;;;;5043593;28;20089;-73
2023/07/02 01:04:37;;;;;;;12.02;5.47;;;15.30;99.90;;;;;;5040643;28;20105;-72
2023/07/02 01:07:08;;;;;;;10.65;5.63;;;15.20;99.90;;;;;;5044397;28;20080;-73
2023/07/02 01:09:34;;;;;;;13.35;5.78;;;15.30;99.90;;;;;;5026394;28;20036;-72
2023/07/02 01:12:03;;;;;;;12.32;5.38;;;15.40;99.90;;;;;;5030250;28;20025;-74
2023/07/02 01:14:36;;;;;;;15.13;5.95;;;15.30;99.90;;;;;;5041765;28;20022;-73
2023/07/02 01:17:03;;;;;;;12.63;5.70;;;15.30;99.90;;;;;;5043026;28;20029;-72
2023/07/02 01:19:52;;;;;;;12.60;5.63;;;15.40;99.90;;;;;;5044198;28;20089;-73
2023/07/02 01:22:23;;;;;;;13.38;5.20;;;15.30;99.90;;;;;;5043638;28;20034;-72
2023/07/02 01:24:50;;;;;;;8.75;5.28;;;15.40;99.90;;;;;;5043974;28;20088;-74
2023/07/02 01:27:16;;;;;;;11.40;5.65;;;15.40;99.90;;;;;;5042947;28;20478;-75
2023/07/02 01:29:44;;;;;;;12.05;5.65;;;15.40;99.90;;;;;;5042427;28;20029;-72
2023/07/02 01:32:10;;;;;;;13.80;5.78;;;15.40;99.90;;;;;;5043975;28;20048;-73
2023/07/02 01:34:36;;;;;;;11.32;5.22;;;15.40;99.90;;;;;;5043711;28;20060;-74
2023/07/02 01:37:03;;;;;;;10.85;5.43;;;15.40;99.90;;;;;;5042575;28;20041;-71
2023/07/02 01:39:29;;;;;;;9.30;5.90;;;15.40;99.90;;;;;;5039906;28;20046;-72
2023/07/02 01:42:06;;;;;;;10.23;5.40;;;15.40;99.90;;;;;;5027839;28;20076;-74
2023/07/02 01:44:32;;;;;;;12.43;5.68;;;15.40;99.90;;;;;;5025505;28;20029;-75
2023/07/02 01:46:58;;;;;;;14.40;6.05;;;15.20;99.90;;;;;;5043445;28;20552;-75
2023/07/02 01:49:24;;;;;;;14.93;6.25;;;15.40;99.90;;;;;;5043157;28;20025;-73
2023/07/02 01:51:54;;;;;;;12.27;5.50;;;15.30;99.90;;;;;;5024911;28;20049;-74
2023/07/02 01:54:22;;;;;;;13.93;5.85;;;15.30;99.90;;;;;;5040308;28;20120;-75
2023/07/02 01:56:47;;;;;;;14.75;6.10;;;15.20;99.90;;;;;;5043706;28;20032;-75
2023/07/02 01:59:14;;;;;;;11.55;5.32;;;15.30;99.90;;;;;;5026358;28;20160;-74
2023/07/02 02:01:40;;;;;;;12.18;6.18;;;15.20;99.90;;;;;;5047832;28;20095;-74
2023/07/02 02:04:07;;;;;;;14.95;5.80;;;15.20;99.90;;;;;;5029000;28;20112;-72
2023/07/02 02:06:33;;;;;;;14.68;6.72;;;15.30;99.90;;;;;;5046939;28;20037;-72
2023/07/02 02:08:59;;;;;;;11.93;5.80;;;15.20;99.90;;;;;;5047419;28;20048;-74
2023/07/02 02:11:25;;;;;;;15.13;6.20;;;15.20;99.90;;;;;;5029512;28;20036;-71
2023/07/02 02:13:51;;;;;;;11.20;5.70;;;15.00;99.90;;;;;;5050540;28;20108;-73
2023/07/02 02:16:17;;;;;;;19.77;6.88;;;15.10;99.90;;;;;;5048130;28;20108;-74
2023/07/02 02:18:42;;;;;;;16.10;6.07;;;15.10;99.90;;;;;;5046334;28;20021;-73
2023/07/02 02:21:08;;;;;;;13.23;6.25;;;15.10;99.90;;;;;;5047032;28;20429;-73
2023/07/02 02:23:33;;;;;;;14.00;6.38;;;15.10;99.90;;;;;;5047016;28;20108;-73
2023/07/02 02:25:59;;;;;;;11.10;5.47;;;15.10;99.90;;;;;;5046366;28;20029;-72
2023/07/02 02:28:25;;;;;;;21.52;6.60;;;15.10;99.90;;;;;;5044724;28;20045;-74
2023/07/02 02:30:50;;;;;;;16.52;6.20;;;15.00;99.90;;;;;;5046875;28;20706;-73
2023/07/02 02:33:16;;;;;;;16.75;6.60;;;15.00;99.90;;;;;;5025834;28;20017;-72
2023/07/02 02:35:41;;;;;;;19.17;6.82;;;15.00;99.90;;;;;;5028988;28;20022;-72
2023/07/02 02:38:07;;;;;;;19.50;6.78;;;14.90;99.90;;;;;;5046801;28;20025;-73
2023/07/02 02:40:32;;;;;;;21.83;6.68;;;14.90;99.90;;;;;;5028268;28;20064;-72
2023/07/02 02:42:58;;;;;;;18.63;7.03;;;14.90;99.90;;;;;;5046317;28;20023;-72
2023/07/02 02:45:23;;;;;;;20.95;6.90;;;14.90;99.90;;;;;;5044377;28;20040;-72
2023/07/02 02:47:49;;;;;;;16.90;6.72;;;14.80;99.90;;;;;;5046309;28;20029;-72
2023/07/02 02:50:14;;;;;;;18.40;7.13;;;14.80;99.90;;;;;;5046719;28;20025;-72
2023/07/02 02:52:40;;;;;;;18.60;7.00;;;14.80;99.90;;;;;;5028352;28;20028;-73
2023/07/02 02:55:07;;;;;;;21.13;7.40;;;14.80;99.90;;;;;;5046590;28;20049;-72
2023/07/02 02:57:33;;;;;;;23.02;8.02;;;14.80;99.90;;;;;;5046511;28;20474;-72
2023/07/02 02:59:59;;;;;;;30.60;7.18;;;14.70;99.90;;;;;;5028385;28;20049;-73
2023/07/02 03:02:24;;;;;;;21.73;7.65;;;14.70;99.90;;;;;;5028004;28;20386;-72
2023/07/02 03:04:50;;;;;;;17.52;7.43;;;14.70;99.90;;;;;;5045962;28;21585;-73
2023/07/02 03:07:16;;;;;;;21.77;7.82;;;14.70;99.90;;;;;;5027686;28;20552;-75
2023/07/02 03:09:42;;;;;;;19.42;7.57;;;14.60;99.90;;;;;;5046175;28;20048;-74
2023/07/02 03:12:08;;;;;;;21.92;7.80;;;14.60;99.90;;;;;;5045710;28;20026;-73
2023/07/02 03:14:33;;;;;;;20.38;6.93;;;14.70;99.90;;;;;;5027874;28;20033;-74
2023/07/02 03:16:59;;;;;;;26.65;8.00;;;14.70;99.90;;;;;;5045908;28;20029;-72
2023/07/02 03:19:25;;;;;;;19.17;7.60;;;14.70;99.90;;;;;;5045543;28;20367;-74
2023/07/02 03:21:50;;;;;;;22.58;8.25;;;14.50;99.90;;;;;;5045884;28;20029;-73
2023/07/02 03:24:17;;;;;;;15.93;7.70;;;14.50;99.90;;;;;;5042565;28;20051;-71
2023/07/02 03:26:43;;;;;;;22.48;7.93;;;14.50;99.90;;;;;;5045899;28;20041;-73
2023/07/02 03:29:10;;;;;;;22.50;8.18;;;14.50;99.90;;;;;;5045940;28;20092;-71
2023/07/02 03:31:35;;;;;;;18.08;7.25;;;14.50;99.90;;;;;;5045416;28;20029;-73
2023/07/02 03:34:07;;;;;;;21.45;7.55;;;14.50;99.90;;;;;;5044143;28;20110;-71
2023/07/02 03:36:33;;;;;;;27.27;8.35;;;14.50;99.90;;;;;;5045148;28;20025;-73
2023/07/02 03:38:58;;;;;;;20.50;7.43;;;14.40;99.90;;;;;;5023948;28;20564;-71
2023/07/02 03:41:24;;;;;;;20.08;8.02;;;14.40;99.90;;;;;;5025305;28;20045;-74
2023/07/02 03:43:50;;;;;;;22.70;8.75;;;14.40;99.90;;;;;;5025760;28;20026;-75
2023/07/02 03:46:16;;;;;;;23.48;8.20;;;14.40;99.90;;;;;;5023903;28;20026;-73
2023/07/02 03:48:41;;;;;;;23.45;9.05;;;14.40;99.90;;;;;;5023664;28;20026;-74
2023/07/02 03:51:07;;;;;;;25.15;7.50;;;14.50;99.90;;;;;;5024304;28;20414;-73
2023/07/02 03:53:33;;;;;;;26.63;8.77;;;14.40;99.90;;;;;;5025236;28;20080;-76
2023/07/02 03:55:58;;;;;;;24.92;8.43;;;14.40;99.90;;;;;;5023595;28;20037;-73
2023/07/02 03:58:24;;;;;;;31.75;8.77;;;14.40;99.90;;;;;;5023211;28;20113;-74
2023/07/02 04:00:49;;;;;;;21.83;8.20;;;14.30;99.90;;;;;;5025313;28;20033;-77
2023/07/02 04:03:16;;;;;;;27.38;8.48;;;14.40;99.90;;;;;;5022991;28;20138;-71
2023/07/02 04:05:42;;;;;;;24.25;8.57;;;14.40;99.90;;;;;;5025008;28;20033;-73
2023/07/02 04:08:08;;;;;;;28.98;8.90;;;14.30;99.90;;;;;;5025361;28;20041;-71
2023/07/02 04:10:33;;;;;;;25.13;8.73;;;14.40;99.90;;;;;;5024939;28;20045;-73
2023/07/02 04:12:59;;;;;;;27.48;9.13;;;14.40;99.90;;;;;;5023536;28;20025;-72
2023/07/02 04:15:26;;;;;;;24.55;8.88;;;14.40;99.90;;;;;;5023267;28;20042;-72
2023/07/02 04:17:52;;;;;;;33.20;9.85;;;14.40;99.90;;;;;;5024100;28;20097;-71
2023/07/02 04:20:18;;;;;;;35.30;8.48;;;14.40;99.90;;;;;;5024992;28;20022;-74
2023/07/02 04:22:45;;;;;;;32.90;8.93;;;14.40;99.90;;;;;;5023006;28;20018;-73
2023/07/02 04:25:15;;;;;;;34.05;9.73;;;14.30;99.90;;;;;;5023772;28;20037;-71
2023/07/02 04:27:44;;;;;;;29.83;9.20;;;14.40;99.90;;;;;;5021668;28;20185;-72
2023/07/02 04:30:11;;;;;;;32.03;9.95;;;14.30;99.90;;;;;;5024938;28;20029;-73
2023/07/02 04:32:41;;;;;;;31.38;9.98;;;14.40;99.90;;;;;;5020234;28;20022;-73
2023/07/02 04:35:07;;;;;;;29.17;9.50;;;14.40;99.90;;;;;;5021806;28;20026;-72
2023/07/02 04:37:33;;;;;;;28.65;10.00;;;14.40;99.90;;;;;;5021559;28;20045;-69
2023/07/02 04:39:59;;;;;;;39.15;11.02;;;14.50;99.90;;;;;;5038283;28;20080;-71
2023/07/02 04:42:27;;;;;;;32.53;9.68;;;14.50;99.90;;;;;;5044474;28;20045;-72
2023/07/02 04:44:54;;;;;;;23.67;9.23;;;14.50;99.90;;;;;;5026226;28;20025;-72
2023/07/02 04:47:20;;;;;;;31.05;10.27;;;14.50;99.90;;;;;;5044357;28;20041;-73
2023/07/02 04:49:46;;;;;;;29.27;9.23;;;14.40;99.90;;;;;;5044681;28;20034;-74
2023/07/02 04:52:11;;;;;;;33.40;10.70;;;14.50;99.90;;;;;;5025951;28;20021;-71
2023/07/02 04:54:37;;;;;;;26.70;9.82;;;14.50;99.90;;;;;;5041690;28;20056;-73
2023/07/02 04:57:03;;;;;;;34.83;10.70;;;14.50;99.90;;;;;;5028490;28;20029;-72
2023/07/02 04:59:28;;;;;;;26.63;9.88;;;14.60;99.90;;;;;;5029264;28;20037;-70
2023/07/02 05:01:54;;;;;;;29.73;10.00;;;14.60;99.90;;;;;;5044641;28;20044;-71
2023/07/02 05:04:19;;;;;;;29.00;10.05;;;14.70;99.90;;;;;;5044803;28;20029;-73
2023/07/02 05:06:45;;;;;;;30.10;9.27;;;14.60;99.90;;;;;;5026510;28;20048;-74
2023/07/02 05:09:10;;;;;;;30.67;10.48;;;14.70;99.90;;;;;;5026707;28;20030;-72
2023/07/02 05:11:36;;;;;;;30.48;9.88;;;14.60;99.90;;;;;;5026883;28;20407;-71
2023/07/02 05:14:02;;;;;;;35.45;10.77;;;14.70;99.90;;;;;;5044089;28;20425;-72
2023/07/02 05:16:27;;;;;;;34.80;10.50;;;14.70;99.90;;;;;;5044366;28;20025;-72
2023/07/02 05:18:53;;;;;;;29.65;10.25;;;14.70;99.90;;;;;;5043742;28;20033;-73
2023/07/02 05:21:19;;;;;;;33.25;10.63;;;14.80;99.90;;;;;;5043966;28;20033;-72
2023/07/02 05:23:44;;;;;;;34.83;10.48;;;14.80;99.90;;;;;;5044710;28;20060;-73
2023/07/02 05:26:10;;;;;;;32.45;10.75;;;14.90;99.90;;;;;;5043239;28;20022;-70
2023/07/02 05:28:36;;;;;;;26.58;9.40;;;14.80;99.90;;;;;;5038198;28;20040;-71
2023/07/02 05:31:02;;;;;;;33.33;10.68;;;14.80;99.90;;;;;;5025646;28;20519;-71
2023/07/02 05:33:27;;;;;;;28.35;9.88;;;14.80;99.90;;;;;;5043475;28;20080;-70
2023/07/02 05:35:53;;;;;;;33.13;10.80;;;14.90;99.90;;;;;;5029873;28;20044;-71
2023/07/02 05:38:19;;;;;;;37.65;10.68;;;14.90;99.90;;;;;;5035838;28;20029;-73
2023/07/02 05:40:45;;;;;;;32.97;10.95;;;14.90;99.90;;;;;;5033063;28;20390;-72
2023/07/02 05:43:11;;;;;;;37.65;10.73;;;14.90;99.90;;;;;;5031856;28;20065;-70
2023/07/02 05:45:37;;;;;;;35.08;10.55;;;14.90;99.90;;;;;;5038392;28;20037;-70
2023/07/02 05:48:02;;;;;;;34.55;10.65;;;14.90;99.90;;;;;;5043374;28;20045;-71
2023/07/02 05:50:28;;;;;;;32.13;10.35;;;15.00;99.90;;;;;;5044065;28;20021;-74
2023/07/02 05:52:53;;;;;;;31.27;10.35;;;15.00;99.90;;;;;;5032903;28;20104;-72
2023/07/02 05:55:19;;;;;;;44.63;11.23;;;15.10;99.90;;;;;;5043453;28;20030;-71
2023/07/02 05:57:45;;;;;;;32.88;10.18;;;15.10;99.90;;;;;;5044278;28;20040;-71
2023/07/02 06:00:12;;;;;;;33.92;10.65;;;15.20;99.90;;;;;;5026383;28;20056;-72
2023/07/02 06:02:37;;;;;;;33.45;10.82;;;15.10;99.90;;;;;;5043488;28;20028;-74
2023/07/02 06:05:04;;;;;;;39.60;10.50;;;15.20;99.90;;;;;;5044371;28;20037;-71
2023/07/02 06:07:29;;;;;;;39.38;11.63;;;15.20;99.90;;;;;;5043719;28;20029;-75
2023/07/02 06:09:55;;;;;;;32.88;9.93;;;15.20;99.90;;;;;;5043099;28;20089;-74
2023/07/02 06:12:21;;;;;;;30.10;10.20;;;15.30;99.90;;;;;;5042706;28;20030;-71
2023/07/02 06:14:47;;;;;;;30.58;9.25;;;15.30;99.90;;;;;;5044087;28;20025;-71
2023/07/02 06:17:12;;;;;;;33.70;11.00;;;15.40;99.90;;;;;;5043090;28;20072;-73
2023/07/02 06:19:38;;;;;;;34.03;10.25;;;15.40;99.90;;;;;;5043528;28;20029;-73
2023/07/02 06:22:04;;;;;;;38.20;10.98;;;15.40;99.90;;;;;;5042663;28;20080;-71
2023/07/02 06:24:30;;;;;;;38.03;10.77;;;15.40;99.90;;;;;;5043340;28;20100;-71
2023/07/02 06:26:56;;;;;;;30.20;9.40;;;15.40;99.90;;;;;;5043437;28;20036;-70
2023/07/02 06:29:23;;;;;;;40.25;10.63;;;15.40;99.90;;;;;;5025633;28;20414;-73
2023/07/02 06:31:49;;;;;;;36.47;9.85;;;15.40;99.90;;;;;;5043057;28;20028;-72
2023/07/02 06:34:15;;;;;;;32.78;10.23;;;15.60;99.90;;;;;;5043845;28;20026;-73
2023/07/02 06:36:40;;;;;;;33.28;10.50;;;15.60;99.90;;;;;;5041891;28;20049;-75
2023/07/02 06:39:06;;;;;;;32.20;10.52;;;15.60;99.90;;;;;;5043251;28;20041;-69
2023/07/02 06:41:32;;;;;;;35.85;9.63;;;15.70;99.90;;;;;;5042960;28;20464;-73
2023/07/02 06:43:57;;;;;;;33.40;10.95;;;15.70;99.90;;;;;;5043550;28;20490;-72
2023/07/02 06:46:23;;;;;;;36.20;10.00;;;15.80;99.90;;;;;;5027763;28;20028;-72
2023/07/02 06:48:48;;;;;;;38.67;9.73;;;15.80;99.90;;;;;;5047055;28;20092;-73
2023/07/02 06:51:14;;;;;;;31.55;9.57;;;15.80;99.90;;;;;;5028895;28;20094;-70
2023/07/02 06:53:44;;;;;;;40.80;10.23;;;16.00;99.90;;;;;;5047021;28;20093;-73
2023/07/02 06:56:10;;;;;;;30.60;10.15;;;15.90;99.90;;;;;;5046776;28;20037;-70
2023/07/02 06:58:35;;;;;;;33.42;10.00;;;16.00;99.90;;;;;;5046491;28;20034;-73
2023/07/02 07:01:01;;;;;;;48.15;10.60;;;16.00;99.90;;;;;;5028937;28;20109;-71
2023/07/02 07:03:27;;;;;;;31.80;9.55;;;15.90;99.90;;;;;;5046837;28;20033;-72
2023/07/02 07:05:53;;;;;;;32.40;9.63;;;16.00;99.90;;;;;;5045660;28;20036;-72
2023/07/02 07:08:19;;;;;;;28.33;9.93;;;16.00;99.90;;;;;;5046940;28;20034;-72
2023/07/02 07:10:45;;;;;;;33.25;8.75;;;16.20;99.90;;;;;;5045432;28;20109;-70
2023/07/02 07:13:11;;;;;;;26.35;8.73;;;16.10;99.90;;;;;;5046690;28;20025;-71
2023/07/02 07:15:36;;;;;;;28.40;9.43;;;16.10;99.90;;;;;;5046729;28;20057;-72
2023/07/02 07:18:02;;;;;;;25.55;8.50;;;16.10;99.90;;;;;;5045913;28;20056;-70
2023/07/02 07:20:29;;;;;;;24.67;8.50;;;16.20;99.90;;;;;;5046454;28;20026;-72
2023/07/02 07:22:54;;;;;;;27.70;8.57;;;16.30;99.90;;;;;;5046825;28;20056;-72
2023/07/02 07:25:20;;;;;;;27.48;8.40;;;16.30;99.90;;;;;;5028283;28;20478;-70
2023/07/02 07:27:45;;;;;;;26.77;8.40;;;16.30;99.90;;;;;;5046324;28;20041;-69
2023/07/02 07:30:11;;;;;;;28.58;8.80;;;16.40;99.90;;;;;;5046470;28;20025;-72
2023/07/02 07:32:37;;;;;;;27.45;8.60;;;16.40;99.90;;;;;;5045906;28;20466;-69
2023/07/02 07:35:03;;;;;;;21.00;8.60;;;16.40;99.90;;;;;;5046267;28;20030;-72
2023/07/02 07:37:28;;;;;;;23.02;7.63;;;16.40;99.90;;;;;;5028491;28;20045;-73
2023/07/02 07:39:54;;;;;;;24.35;7.82;;;16.50;99.90;;;;;;5045551;28;20053;-72
2023/07/02 07:42:20;;;;;;;29.65;7.95;;;16.50;99.90;;;;;;5046370;28;20040;-71
2023/07/02 07:44:46;;;;;;;20.33;6.68;;;16.60;99.90;;;;;;5028298;28;20030;-68
2023/07/02 07:47:12;;;;;;;18.45;6.70;;;16.50;99.90;;;;;;5045920;28;20491;-71
2023/07/02 07:49:37;;;;;;;19.58;6.68;;;16.50;99.90;;;;;;5028159;28;20025;-71
2023/07/02 07:52:06;;;;;;;20.55;6.20;;;16.50;99.90;;;;;;5028172;28;20088;-72
2023/07/02 07:54:32;;;;;;;22.08;6.80;;;16.60;99.90;;;;;;5045267;28;20048;-73
2023/07/02 07:56:57;;;;;;;28.27;8.30;;;16.60;99.90;;;;;;5031342;28;20049;-70
2023/07/02 07:59:23;;;;;;;23.52;7.63;;;16.70;99.90;;;;;;5045059;28;20037;-69
2023/07/02 08:01:49;;;;;;;25.15;7.70;;;16.80;99.90;;;;;;5044659;28;20030;-71
2023/07/02 08:04:14;;;;;;;25.60;7.70;;;16.90;99.90;;;;;;5045548;28;20033;-72
2023/07/02 08:06:40;;;;;;;29.77;8.40;;;16.90;99.90;;;;;;5045765;28;20048;-71
2023/07/02 08:09:05;;;;;;;26.15;7.57;;;16.90;99.90;;;;;;5045446;28;20037;-71
2023/07/02 08:11:31;;;;;;;25.90;7.97;;;17.00;99.90;;;;;;5027454;28;20028;-76
2023/07/02 08:13:56;;;;;;;19.83;7.05;;;17.00;99.90;;;;;;5030482;28;20018;-72
2023/07/02 08:16:22;;;;;;;28.35;8.23;;;17.00;99.90;;;;;;5045420;28;20037;-70
2023/07/02 08:18:47;;;;;;;19.08;6.80;;;17.00;99.90;;;;;;5045807;28;20026;-70
2023/07/02 08:21:13;;;;;;;17.48;6.70;;;17.00;99.90;;;;;;5043617;28;20043;-74
2023/07/02 08:23:38;;;;;;;24.77;6.80;;;17.10;99.90;;;;;;5045378;28;20037;-69
2023/07/02 08:26:04;;;;;;;26.45;7.03;;;17.10;99.90;;;;;;5045430;28;20017;-71
2023/07/02 08:28:30;;;;;;;21.38;6.60;;;17.10;99.90;;;;;;5044875;28;20041;-68
2023/07/02 08:30:55;;;;;;;22.10;7.63;;;17.10;99.90;;;;;;5045158;28;20033;-74
2023/07/02 08:33:21;;;;;;;15.88;5.32;;;17.00;99.90;;;;;;5027257;28;20030;-73
2023/07/02 08:35:47;;;;;;;14.95;5.80;;;17.10;99.90;;;;;;5026477;28;20092;-72
2023/07/02 08:38:24;;;;;;;15.13;5.55;;;17.10;99.90;;;;;;5027564;28;20029;-74
2023/07/02 08:40:50;;;;;;;15.93;5.53;;;17.20;99.90;;;;;;5004441;28;20038;-71
2023/07/02 08:43:15;;;;;;;19.13;6.40;;;17.20;99.90;;;;;;5005538;28;20026;-69
2023/07/02 08:45:42;;;;;;;17.83;6.78;;;17.30;99.90;;;;;;5001808;28;20030;-71
2023/07/02 08:48:08;;;;;;;17.13;6.75;;;17.40;99.90;;;;;;5003667;28;20038;-71
2023/07/02 08:50:34;;;;;;;19.70;6.32;;;17.50;99.90;;;;;;5003827;28;20606;-69
2023/07/02 08:52:59;;;;;;;23.90;6.30;;;17.40;99.90;;;;;;4999062;28;20041;-71
2023/07/02 08:55:25;;;;;;;17.48;6.25;;;17.40;99.90;;;;;;4998409;28;20034;-70
2023/07/02 08:57:53;;;;;;;20.45;6.45;;;17.50;99.90;;;;;;5011536;28;20027;-69
2023/07/02 09:00:19;;;;;;;16.08;6.18;;;17.60;99.90;;;;;;5002585;28;20022;-72
2023/07/02 09:02:46;;;;;;;15.25;5.28;;;17.60;99.90;;;;;;5004659;28;20027;-72
2023/07/02 09:05:13;;;;;;;20.23;5.80;;;17.70;99.90;;;;;;5000573;28;20035;-70
2023/07/02 09:07:49;;;;;;;18.58;6.00;;;17.80;99.90;;;;;;5003964;28;20506;-70
2023/07/02 09:10:30;;;;;;;16.85;5.65;;;17.90;99.90;;;;;;5000308;28;20034;-72
2023/07/02 09:13:06;;;;;;;13.15;5.45;;;18.00;99.90;;;;;;4995331;28;20038;-73
2023/07/02 09:15:39;;;;;;;14.23;5.47;;;18.00;99.90;;;;;;4997404;28;20049;-72
2023/07/02 09:18:19;;;;;;;15.85;5.85;;;17.90;99.90;;;;;;5004191;28;20033;-69
2023/07/02 09:20:44;;;;;;;15.13;6.00;;;17.90;99.90;;;;;;5004987;28;20061;-71
2023/07/02 09:23:10;;;;;;;17.60;5.45;;;18.00;99.90;;;;;;5003929;28;20026;-65
2023/07/02 09:25:40;;;;;;;17.65;5.85;;;18.10;99.90;;;;;;5004517;28;20037;-69
2023/07/02 09:28:23;;;;;;;21.20;5.32;;;18.00;99.90;;;;;;5004889;28;20046;-69
2023/07/02 09:30:54;;;;;;;20.88;5.82;;;18.00;99.90;;;;;;5005048;28;20030;-74
2023/07/02 09:33:19;;;;;;;15.65;5.68;;;18.00;99.90;;;;;;5004592;28;20073;-71
2023/07/02 09:35:45;;;;;;;12.48;5.35;;;18.10;99.90;;;;;;5004133;28;20026;-70
2023/07/02 09:38:12;;;;;;;19.88;5.25;;;18.20;99.90;;;;;;4994868;28;20030;-72
2023/07/02 09:40:47;;;;;;;19.83;5.53;;;18.30;99.90;;;;;;5038564;28;20532;-68
2023/07/02 09:43:14;;;;;;;14.05;5.25;;;18.30;99.90;;;;;;5027763;28;20163;-72
2023/07/02 09:45:43;;;;;;;17.85;5.72;;;18.30;99.90;;;;;;5043300;28;20017;-72
2023/07/02 09:48:15;;;;;;;18.38;6.57;;;18.30;99.90;;;;;;5025957;28;20052;-71
2023/07/02 09:50:46;;;;;;;26.10;7.00;;;18.20;99.90;;;;;;5044462;28;20049;-71
2023/07/02 09:53:12;;;;;;;17.52;6.80;;;18.20;99.90;;;;;;5044402;28;20021;-71
2023/07/02 09:55:42;;;;;;;17.95;6.30;;;18.20;99.90;;;;;;5043786;28;20116;-66
2023/07/02 09:58:08;;;;;;;21.10;6.95;;;18.30;99.90;;;;;;5042177;28;20079;-72
2023/07/02 10:00:34;;;;;;;19.20;6.30;;;18.30;99.90;;;;;;5034740;28;20038;-68
2023/07/02 10:03:00;;;;;;;20.75;6.03;;;18.30;99.90;;;;;;5036077;28;20528;-68
2023/07/02 10:05:33;;;;;;;17.25;6.07;;;18.40;99.90;;;;;;5043267;28;20032;-70
2023/07/02 10:08:12;;;;;;;17.55;5.38;;;18.50;99.90;;;;;;5042964;28;20048;-71
2023/07/02 10:10:37;;;;;;;16.60;4.97;;;18.50;99.90;;;;;;5042428;28;20116;-72
2023/07/02 10:13:03;;;;;;;12.27;4.63;;;18.50;99.90;;;;;;5043054;28;20055;-70
2023/07/02 10:15:31;;;;;;;17.40;4.47;;;18.50;99.90;;;;;;5042830;28;20025;-67
2023/07/02 10:18:03;;;;;;;19.77;4.68;;;18.60;99.90;;;;;;5043245;28;20029;-67
2023/07/02 10:20:37;;;;;;;13.15;4.53;;;18.80;99.90;;;;;;5026012;28;20061;-70
2023/07/02 10:23:04;;;;;;;9.82;4.00;;;18.90;99.90;;;;;;5047002;28;20036;-72
2023/07/02 10:25:34;;;;;;;13.55;3.78;;;19.00;99.90;;;;;;5047402;28;20021;-68
2023/07/02 10:28:19;;;;;;;11.10;3.25;;;19.00;99.90;;;;;;5047496;28;20042;-68
2023/07/02 10:30:45;;;;;;;9.88;3.55;;;19.10;99.90;;;;;;5047335;28;20075;-75
2023/07/02 10:33:13;;;;;;;8.93;3.10;;;19.00;99.90;;;;;;5046639;28;20029;-71
2023/07/02 10:35:44;;;;;;;9.52;3.70;;;18.80;99.90;;;;;;5047493;28;20025;-69
2023/07/02 10:38:19;;;;;;;12.88;3.70;;;18.70;99.90;;;;;;5046887;28;20017;-67
2023/07/02 10:40:45;;;;;;;9.68;3.60;;;18.60;99.90;;;;;;5047302;28;20049;-72
2023/07/02 10:43:11;;;;;;;12.07;3.45;;;18.60;99.90;;;;;;5047227;28;20087;-68
2023/07/02 10:45:37;;;;;;;13.13;3.70;;;18.60;99.90;;;;;;5047376;28;20080;-67
2023/07/02 10:48:04;;;;;;;9.18;3.00;;;18.70;99.90;;;;;;5046608;28;20038;-69
2023/07/02 10:50:32;;;;;;;10.23;3.22;;;18.80;99.90;;;;;;5047021;28;20100;-68
2023/07/02 10:52:57;;;;;;;12.75;3.90;;;18.90;99.90;;;;;;5047438;28;20533;-68
2023/07/02 10:55:24;;;;;;;13.48;3.05;;;19.00;99.90;;;;;;5022339;28;20044;-67
2023/07/02 10:58:02;;;;;;;11.02;3.45;;;19.20;99.90;;;;;;5038914;28;20029;-68
2023/07/02 11:00:28;;;;;;;9.27;3.25;;;19.20;99.90;;;;;;5038123;28;20037;-70
2023/07/02 11:02:53;;;;;;;8.82;2.78;;;19.40;99.90;;;;;;5027736;28;20034;-69
2023/07/02 11:05:19;;;;;;;11.40;3.45;;;19.40;99.90;;;;;;5044622;28;20057;-73
2023/07/02 11:07:45;;;;;;;10.82;3.35;;;19.30;99.90;;;;;;5046029;28;20043;-70
2023/07/02 11:10:18;;;;;;;11.00;3.03;;;19.10;99.90;;;;;;5045909;28;20034;-69
2023/07/02 11:12:43;;;;;;;15.00;3.65;;;19.20;99.90;;;;;;5046227;28;20037;-72
2023/07/02 11:15:19;;;;;;;9.68;3.20;;;19.20;99.90;;;;;;5046356;28;20075;-69
2023/07/02 11:17:45;;;;;;;18.23;4.30;;;19.40;99.90;;;;;;5046326;28;20021;-70
2023/07/02 11:20:12;;;;;;;10.38;4.10;;;19.50;99.90;;;;;;5043967;28;20025;-69
2023/07/02 11:22:38;;;;;;;13.75;3.95;;;19.50;99.90;;;;;;5044804;28;20037;-72
2023/07/02 11:25:10;;;;;;;10.13;3.60;;;19.50;99.90;;;;;;5046181;28;20036;-74
2023/07/02 11:27:36;;;;;;;10.60;3.75;;;19.50;99.90;;;;;;5044728;28;20044;-70
2023/07/02 11:30:02;;;;;;;13.05;3.63;;;19.50;99.90;;;;;;5046055;28;20126;-69
2023/07/02 11:32:27;;;;;;;11.23;3.40;;;19.40;99.90;;;;;;5029682;28;20495;-69
2023/07/02 11:34:54;;;;;;;14.73;4.00;;;19.50;99.90;;;;;;5034461;28;20052;-72
2023/07/02 11:37:19;;;;;;;11.73;3.45;;;19.60;99.90;;;;;;5032976;28;20093;-71
2023/07/02 11:39:45;;;;;;;12.60;3.60;;;19.90;99.90;;;;;;5045839;28;20069;-71
2023/07/02 11:42:11;;;;;;;9.43;4.00;;;20.10;99.90;;;;;;5046456;28;20093;-71
2023/07/02 11:44:36;;;;;;;10.90;4.00;;;20.20;99.90;;;;;;5046494;28;20454;-75
2023/07/02 11:47:02;;;;;;;12.50;3.50;;;20.10;99.90;;;;;;5040556;28;20037;-70
2023/07/02 11:49:29;;;;;;;11.85;4.18;;;19.80;99.90;;;;;;5046018;28;20064;-72
2023/07/02 11:51:54;;;;;;;11.05;4.20;;;19.50;99.90;;;;;;5046152;28;20022;-71
2023/07/02 11:54:20;;;;;;;13.95;4.22;;;19.20;99.90;;;;;;5045816;28;20060;-71
2023/07/02 11:56:46;;;;;;;15.15;4.38;;;19.00;99.90;;;;;;5046245;28;20029;-72
2023/07/02 11:59:12;;;;;;;9.82;3.75;;;19.00;99.90;;;;;;5028259;28;20140;-71
2023/07/02 12:01:37;;;;;;;12.43;3.60;;;19.20;99.90;;;;;;5045575;28;20752;-70
2023/07/02 12:04:03;;;;;;;9.88;3.80;;;19.50;99.90;;;;;;5027997;28;20037;-72
2023/07/02 12:06:29;;;;;;;9.25;3.80;;;19.90;99.90;;;;;;5045647;28;20025;-69
2023/07/02 12:08:54;;;;;;;15.15;3.80;;;20.10;99.90;;;;;;5027499;28;20101;-70
2023/07/02 12:11:20;;;;;;;8.88;3.20;;;20.20;99.90;;;;;;5045180;28;20501;-72
2023/07/02 12:13:45;;;;;;;9.55;3.55;;;20.10;99.90;;;;;;5045456;28;20029;-73
2023/07/02 12:16:11;;;;;;;12.13;3.95;;;19.80;99.90;;;;;;5045774;28;20033;-72
2023/07/02 12:18:36;;;;;;;15.68;4.18;;;19.60;99.90;;;;;;5045634;28;20025;-71
2023/07/02 12:21:02;;;;;;;11.75;3.50;;;19.50;99.90;;;;;;5045433;28;20136;-71
2023/07/02 12:23:28;;;;;;;16.23;3.72;;;19.50;99.90;;;;;;5045280;28;20030;-72
2023/07/02 12:25:53;;;;;;;17.60;4.03;;;19.50;99.90;;;;;;5045521;28;20052;-69
2023/07/02 12:28:19;;;;;;;10.93;3.88;;;19.70;99.90;;;;;;5045090;28;20046;-73
2023/07/02 12:30:44;;;;;;;14.50;4.10;;;19.90;99.90;;;;;;5045192;28;20026;-72
2023/07/02 12:33:10;;;;;;;8.70;3.70;;;20.10;99.90;;;;;;5043962;28;20025;-72